KEUG/EUG METAR and TAF weather

Enter ICAO airport designator
Station Type Date Time Source
KEUG METAR 2019/08/22 20:16 UTC NOAA

KEUG 222016Z 04008KT 10SM SCT028 22/12 A3008 RMK AO2 T02170117


Station Type Date Time Source
KEUG Decoded METAR 2019/08/22 20:16 UTC NOAA

Station name not available
Aug 22, 2019 - 04:16 PM EDT / 2019.08.22 2016 UTC
Wind: from the NE (040 degrees) at 9 MPH (8 KT):0
Visibility: 10 mile(s):0
Sky conditions: partly cloudy
Temperature: 71.1 F (21.7 C)
Dew Point: 53.1 F (11.7 C)
Relative Humidity: 52%
Pressure (altimeter): 30.08 in. Hg (1018 hPa)
ob: KEUG 222016Z 04008KT 10SM SCT028 22/12 A3008 RMK AO2 T02170117
cycle: 20

Station Type Date Time Source
KEUG TAF 2019/08/22 18:54 UTC NOAA

TAF KEUG 221751Z 2218/2318 36008KT P6SM FEW010 OVC030
FM222100 36012G18KT P6SM SKC
FM230400 34007KT P6SM SKC
FM231700 01004KT P6SM SCT030

Example: see airport list